createdAt,value
2023-03-14T00:03:13.261Z,72.26
2023-03-14T00:06:34.604Z,72.08
2023-03-14T00:09:56.267Z,71.75
2023-03-14T00:13:19.149Z,71.61
2023-03-14T00:16:40.387Z,71.69
2023-03-14T00:20:05.932Z,71.51
2023-03-14T00:23:27.392Z,71.89
2023-03-14T00:26:49.131Z,71.79
2023-03-14T00:30:12.932Z,71.88
2023-03-14T00:33:35.575Z,71.78
2023-03-14T00:36:58.409Z,71.51
2023-03-14T00:40:20.331Z,71.32
2023-03-14T00:43:44.436Z,71.53
2023-03-14T00:47:07.356Z,70.86
2023-03-14T00:50:28.789Z,71.30
2023-03-14T00:53:50.153Z,71.28
2023-03-14T00:57:11.961Z,71.49
2023-03-14T01:00:33.294Z,71.28
2023-03-14T01:03:57.298Z,71.53
2023-03-14T01:07:19.150Z,71.61
2023-03-14T01:10:41.582Z,71.43
2023-03-14T01:14:04.186Z,71.82
2023-03-14T01:17:25.922Z,71.92
2023-03-14T01:20:48.693Z,72.59
2023-03-14T01:24:13.291Z,72.31
2023-03-14T01:27:35.572Z,72.03
2023-03-14T01:30:57.035Z,72.67
2023-03-14T01:34:18.563Z,72.99
2023-03-14T01:37:41.588Z,73.11
2023-03-14T01:41:10.114Z,73.29
2023-03-14T01:44:50.051Z,73.29
2023-03-14T01:48:11.570Z,73.02
2023-03-14T01:51:38.323Z,73.12
2023-03-14T01:55:06.087Z,73.57
2023-03-14T01:58:32.960Z,73.89
2023-03-14T02:01:57.438Z,73.98
2023-03-14T02:05:22.487Z,73.90
2023-03-14T02:08:50.538Z,74.05
2023-03-14T02:12:19.335Z,73.98
2023-03-14T02:15:50.314Z,74.34
2023-03-14T02:19:52.294Z,74.48
2023-03-14T02:23:37.577Z,74.46
2023-03-14T02:27:13.104Z,75.10
2023-03-14T02:30:39.140Z,74.67
2023-03-14T02:34:01.975Z,75.37
2023-03-14T02:37:27.589Z,74.89
2023-03-14T02:40:49.572Z,75.15
2023-03-14T02:44:12.724Z,75.13
2023-03-14T02:47:34.450Z,75.03
2023-03-14T02:50:58.847Z,74.96
2023-03-14T02:54:22.618Z,74.84
2023-03-14T02:57:45.455Z,75.21
2023-03-14T03:01:09.405Z,74.99
2023-03-14T03:04:30.952Z,74.63
2023-03-14T03:07:52.690Z,74.96
2023-03-14T03:11:14.486Z,75.12
2023-03-14T03:14:36.148Z,75.27
2023-03-14T03:18:00.771Z,74.74
2023-03-14T03:21:24.331Z,74.72
2023-03-14T03:24:46.368Z,75.13
2023-03-14T03:28:08.922Z,75.13
2023-03-14T03:31:33.454Z,74.57
2023-03-14T03:34:56.334Z,75.02
2023-03-14T03:38:18.754Z,74.54
2023-03-14T03:41:41.547Z,74.86
2023-03-14T03:45:04.896Z,74.88
2023-03-14T03:48:28.836Z,74.84
2023-03-14T03:51:53.094Z,74.50
2023-03-14T03:55:15.155Z,74.71
2023-03-14T03:58:39.771Z,75.33
2023-03-14T04:02:01.972Z,75.39
2023-03-14T04:05:23.763Z,74.97
2023-03-14T04:08:53.512Z,74.64
2023-03-14T04:12:38.166Z,75.21
2023-03-14T04:16:12.239Z,74.78
2023-03-14T04:19:33.681Z,75.18
2023-03-14T04:22:55.533Z,74.52
2023-03-14T04:26:18.890Z,74.68
2023-03-14T04:29:40.399Z,75.20
2023-03-14T04:33:02.257Z,74.59
2023-03-14T04:36:26.079Z,75.03
2023-03-14T04:39:48.254Z,75.19
2023-03-14T04:43:21.928Z,74.75
2023-03-14T04:46:47.593Z,74.88
2023-03-14T04:50:10.052Z,74.46
2023-03-14T04:53:33.053Z,74.67
2023-03-14T04:56:55.475Z,74.32
2023-03-14T05:00:19.711Z,74.38
2023-03-14T05:04:03.644Z,74.89
2023-03-14T05:07:44.064Z,74.99
2023-03-14T05:11:17.263Z,73.96
2023-03-14T05:14:56.123Z,74.06
2023-03-14T05:18:34.731Z,73.81
2023-03-14T05:22:07.451Z,73.56
2023-03-14T05:25:51.257Z,74.04
2023-03-14T05:29:27.958Z,73.84
2023-03-14T05:33:00.477Z,73.76
2023-03-14T05:36:38.458Z,73.81
2023-03-14T05:40:18.372Z,73.54
2023-03-14T05:43:58.611Z,73.91
2023-03-14T05:47:34.121Z,74.26
2023-03-14T05:51:14.544Z,74.48
2023-03-14T05:54:56.065Z,74.26
2023-03-14T05:58:44.036Z,73.49
2023-03-14T06:02:16.327Z,73.77
2023-03-14T06:05:48.297Z,74.17
2023-03-14T06:09:10.008Z,73.10
2023-03-14T06:12:35.993Z,73.38
2023-03-14T06:15:57.732Z,73.13
2023-03-14T06:19:25.627Z,73.11
2023-03-14T06:22:47.668Z,72.60
2023-03-14T06:26:10.071Z,72.98
2023-03-14T06:29:35.194Z,73.27
2023-03-14T06:32:57.874Z,72.28
2023-03-14T06:36:19.613Z,72.26
2023-03-14T06:39:44.904Z,72.62
2023-03-14T06:43:15.113Z,72.16
2023-03-14T06:46:40.636Z,71.89
2023-03-14T06:50:02.218Z,71.65
2023-03-14T06:53:25.057Z,71.46
2023-03-14T06:56:47.439Z,70.42
2023-03-14T07:00:10.864Z,70.96
2023-03-14T07:03:34.126Z,70.77
2023-03-14T07:06:56.506Z,70.81
2023-03-14T07:10:19.546Z,70.39
2023-03-14T07:13:41.007Z,69.91
2023-03-14T07:17:03.294Z,70.50
2023-03-14T07:20:27.160Z,70.37
2023-03-14T07:23:48.675Z,69.56
2023-03-14T07:27:11.810Z,69.67
2023-03-14T07:30:33.983Z,69.36
2023-03-14T07:33:57.578Z,69.12
2023-03-14T07:37:25.191Z,69.45
2023-03-14T07:40:51.330Z,68.36
2023-03-14T07:44:22.308Z,68.80
2023-03-14T07:47:43.920Z,68.70
2023-03-14T07:51:05.367Z,68.93
2023-03-14T07:54:28.693Z,68.45
2023-03-14T07:57:50.312Z,68.35
2023-03-14T08:01:11.625Z,67.36
2023-03-14T08:04:33.330Z,67.56
2023-03-14T08:07:55.068Z,66.69
2023-03-14T08:11:18.292Z,66.40
2023-03-14T08:14:39.938Z,66.67
2023-03-14T08:18:01.284Z,67.08
2023-03-14T08:21:22.466Z,66.22
2023-03-14T08:24:43.813Z,66.68
2023-03-14T08:28:06.870Z,66.24
2023-03-14T08:31:28.843Z,66.18
2023-03-14T08:34:50.251Z,66.00
2023-03-14T08:38:12.148Z,65.90
2023-03-14T08:41:33.628Z,66.06
2023-03-14T08:44:56.683Z,65.60
2023-03-14T08:48:18.484Z,65.63
2023-03-14T08:51:40.222Z,64.71
2023-03-14T08:55:01.472Z,64.51
2023-03-14T08:58:23.717Z,65.49
2023-03-14T09:01:46.304Z,65.36
2023-03-14T09:05:08.803Z,65.46
2023-03-14T09:08:30.194Z,65.10
2023-03-14T09:11:51.805Z,64.61
2023-03-14T09:15:13.337Z,64.74
2023-03-14T09:18:36.126Z,63.99
2023-03-14T09:21:57.806Z,63.49
2023-03-14T09:25:19.258Z,63.76
2023-03-14T09:28:40.764Z,62.85
2023-03-14T09:32:02.239Z,62.26
2023-03-14T09:35:25.621Z,62.82
2023-03-14T09:38:47.127Z,62.34
2023-03-14T09:42:15.107Z,62.64
2023-03-14T09:45:41.286Z,62.30
2023-03-14T09:49:02.957Z,62.24
2023-03-14T09:52:30.571Z,61.68
2023-03-14T09:55:53.221Z,62.33
2023-03-14T09:59:15.863Z,61.89
2023-03-14T10:02:38.530Z,60.87
2023-03-14T10:06:00.480Z,60.54
2023-03-14T10:09:26.420Z,59.62
2023-03-14T10:12:49.503Z,59.39
2023-03-14T10:16:11.132Z,59.90
2023-03-14T10:19:32.602Z,60.39
2023-03-14T10:22:54.253Z,59.91
2023-03-14T10:26:20.509Z,59.42
2023-03-14T10:29:55.067Z,58.61
2023-03-14T10:33:24.230Z,58.86
2023-03-14T10:36:45.841Z,58.74
2023-03-14T10:40:15.279Z,58.91
2023-03-14T10:43:39.985Z,59.02
2023-03-14T10:47:03.953Z,59.01
2023-03-14T10:50:28.173Z,59.06
2023-03-14T10:53:52.259Z,58.50
2023-03-14T10:57:13.897Z,57.99
2023-03-14T11:00:36.972Z,58.25
2023-03-14T11:04:03.448Z,58.79
2023-03-14T11:07:29.549Z,58.32
2023-03-14T11:10:56.233Z,58.54
2023-03-14T11:14:26.525Z,58.79
2023-03-14T11:18:04.284Z,59.24
2023-03-14T11:21:34.382Z,58.62
2023-03-14T11:25:16.868Z,59.08
2023-03-14T11:28:41.255Z,58.48
2023-03-14T11:32:06.625Z,58.30
2023-03-14T11:35:35.589Z,58.47
2023-03-14T11:38:59.306Z,58.58
2023-03-14T11:42:22.932Z,58.00
2023-03-14T11:45:46.500Z,58.89
2023-03-14T11:49:13.978Z,58.83
2023-03-14T11:52:42.199Z,58.80
2023-03-14T11:56:05.259Z,58.35
2023-03-14T11:59:31.531Z,58.47
2023-03-14T12:02:59.708Z,58.88
2023-03-14T12:06:26.551Z,59.11
2023-03-14T12:09:50.328Z,58.48
2023-03-14T12:13:14.000Z,58.26
2023-03-14T12:16:41.111Z,58.31
2023-03-14T12:20:17.046Z,59.62
2023-03-14T12:23:44.065Z,60.15
2023-03-14T12:27:10.199Z,61.64
2023-03-14T12:30:33.591Z,62.50
2023-03-14T12:34:04.218Z,62.64
2023-03-14T12:37:31.957Z,63.28
2023-03-14T12:41:01.703Z,64.01
2023-03-14T12:44:44.455Z,64.54
2023-03-14T12:48:12.802Z,65.39
2023-03-14T12:51:38.055Z,66.94
2023-03-14T12:55:04.519Z,68.50
2023-03-14T12:58:33.088Z,69.33
2023-03-14T13:01:59.087Z,69.85
2023-03-14T13:05:25.946Z,70.04
2023-03-14T13:08:48.398Z,70.26
2023-03-14T13:12:13.197Z,70.95
2023-03-14T13:15:40.066Z,70.63
2023-03-14T13:19:13.503Z,70.08
2023-03-14T13:22:38.021Z,68.88
2023-03-14T13:26:01.436Z,68.94
2023-03-14T13:29:25.174Z,67.24
2023-03-14T13:32:48.773Z,66.36
2023-03-14T13:36:12.455Z,65.97
2023-03-14T13:39:34.299Z,66.13
2023-03-14T13:43:18.857Z,65.34
2023-03-14T13:46:40.488Z,65.19
2023-03-14T13:50:02.334Z,64.90
2023-03-14T13:53:26.562Z,63.67
2023-03-14T13:56:48.994Z,63.52
2023-03-14T14:00:20.580Z,63.41
2023-03-14T14:03:44.566Z,62.22
2023-03-14T14:07:09.988Z,62.31
2023-03-14T14:10:39.645Z,63.00
2023-03-14T14:14:02.157Z,63.87
2023-03-14T14:17:29.448Z,62.99
2023-03-14T14:20:52.473Z,63.20
2023-03-14T14:24:15.781Z,62.59
2023-03-14T14:27:42.297Z,63.12
2023-03-14T14:31:07.156Z,62.40
2023-03-14T14:34:28.541Z,61.26
2023-03-14T14:37:50.736Z,60.97
2023-03-14T14:41:13.801Z,61.41
2023-03-14T14:44:38.290Z,60.63
2023-03-14T14:48:06.856Z,60.92
2023-03-14T14:51:33.699Z,61.09
2023-03-14T14:55:00.250Z,60.71
2023-03-14T14:58:26.470Z,61.70
2023-03-14T15:01:51.370Z,62.36
2023-03-14T15:05:15.039Z,61.84
2023-03-14T15:08:36.353Z,62.13
2023-03-14T15:11:57.405Z,62.72
2023-03-14T15:15:19.710Z,62.59
2023-03-14T15:18:43.962Z,61.84
2023-03-14T15:22:07.718Z,62.68
2023-03-14T15:25:51.520Z,64.87
2023-03-14T15:29:13.331Z,67.35
2023-03-14T15:32:34.912Z,69.46
2023-03-14T15:35:58.910Z,67.04
2023-03-14T15:39:20.273Z,67.33
2023-03-14T15:42:42.297Z,69.92
2023-03-14T15:46:03.672Z,72.31
2023-03-14T15:49:25.613Z,73.26
2023-03-14T15:52:48.492Z,72.36
2023-03-14T15:56:14.334Z,72.21
2023-03-14T15:59:36.420Z,74.10
2023-03-14T16:02:58.215Z,73.39
2023-03-14T16:06:19.335Z,73.55
2023-03-14T16:09:42.412Z,75.20
2023-03-14T16:13:05.401Z,75.43
2023-03-14T16:16:26.942Z,75.12
2023-03-14T16:19:49.001Z,74.41
2023-03-14T16:23:10.698Z,76.02
2023-03-14T16:26:35.176Z,76.53
2023-03-14T16:29:56.725Z,78.08
2023-03-14T16:33:19.902Z,78.40
2023-03-14T16:36:41.669Z,78.34
2023-03-14T16:40:13.080Z,79.42
2023-03-14T16:43:38.194Z,80.85
2023-03-14T16:46:59.827Z,81.65
2023-03-14T16:50:21.066Z,82.56
2023-03-14T16:53:43.081Z,83.68
2023-03-14T16:57:04.857Z,82.94
2023-03-14T17:00:27.709Z,82.99
2023-03-14T17:03:51.703Z,83.05
2023-03-14T17:07:13.304Z,84.00
2023-03-14T17:10:36.421Z,83.01
2023-03-14T17:13:58.964Z,83.61
2023-03-14T17:17:22.076Z,83.77
2023-03-14T17:20:43.473Z,84.13
2023-03-14T17:24:05.673Z,84.74
2023-03-14T17:27:27.126Z,84.54
2023-03-14T17:30:48.496Z,84.25
2023-03-14T17:34:11.903Z,84.49
2023-03-14T17:37:33.414Z,84.96
2023-03-14T17:40:55.415Z,84.93
2023-03-14T17:44:16.785Z,86.06
2023-03-14T17:47:38.561Z,85.82
2023-03-14T17:51:02.412Z,85.58
2023-03-14T17:54:23.936Z,85.79
2023-03-14T17:57:45.302Z,85.50
2023-03-14T18:01:11.845Z,85.62
2023-03-14T18:04:34.125Z,86.99
2023-03-14T18:07:58.163Z,86.23
2023-03-14T18:11:19.576Z,86.29
2023-03-14T18:14:44.257Z,86.34
2023-03-14T18:18:05.940Z,86.39
2023-03-14T18:21:29.733Z,86.55
2023-03-14T18:24:53.165Z,87.20
2023-03-14T18:28:14.738Z,87.29
2023-03-14T18:31:36.590Z,87.26
2023-03-14T18:34:58.329Z,87.49
2023-03-14T18:38:20.091Z,87.66
2023-03-14T18:41:43.203Z,87.89
2023-03-14T18:45:05.277Z,87.95
2023-03-14T18:48:27.326Z,88.33
2023-03-14T18:51:49.010Z,88.87
2023-03-14T18:55:11.122Z,88.59
2023-03-14T18:58:33.924Z,88.36
2023-03-14T19:01:56.000Z,88.41
2023-03-14T19:05:17.458Z,88.81
2023-03-14T19:08:40.167Z,88.49
2023-03-14T19:12:01.877Z,88.72
2023-03-14T19:15:24.886Z,88.42
2023-03-14T19:18:46.075Z,88.47
2023-03-14T19:22:07.961Z,88.62
2023-03-14T19:25:29.820Z,88.96
2023-03-14T19:28:52.779Z,89.05
2023-03-14T19:32:19.441Z,88.56
2023-03-14T19:35:40.815Z,88.52
2023-03-14T19:39:04.023Z,88.54
2023-03-14T19:42:25.453Z,88.28
2023-03-14T19:45:47.544Z,88.53
2023-03-14T19:49:11.559Z,87.60
2023-03-14T19:52:33.020Z,87.32
2023-03-14T19:55:54.881Z,87.47
2023-03-14T19:59:16.634Z,87.47
2023-03-14T20:02:37.807Z,87.00
2023-03-14T20:06:05.292Z,87.11
2023-03-14T20:09:26.816Z,87.24
2023-03-14T20:12:48.576Z,86.58
2023-03-14T20:16:11.491Z,86.58
2023-03-14T20:19:32.843Z,86.79
2023-03-14T20:22:55.416Z,86.59
2023-03-14T20:26:17.120Z,85.42
2023-03-14T20:29:39.198Z,84.71
2023-03-14T20:33:04.400Z,84.30
2023-03-14T20:36:25.708Z,84.34
2023-03-14T20:39:48.856Z,83.85
2023-03-14T20:43:10.482Z,84.21
2023-03-14T20:46:32.369Z,84.85
2023-03-14T20:49:54.194Z,84.75
2023-03-14T20:53:15.623Z,84.77
2023-03-14T20:56:38.470Z,83.67
2023-03-14T21:00:00.303Z,83.56
2023-03-14T21:03:23.098Z,83.42
2023-03-14T21:06:45.952Z,84.25
2023-03-14T21:10:09.913Z,83.54
2023-03-14T21:13:33.535Z,83.85
2023-03-14T21:16:57.085Z,83.73
2023-03-14T21:20:18.891Z,83.02
2023-03-14T21:23:41.178Z,82.55
2023-03-14T21:27:03.012Z,82.56
2023-03-14T21:30:26.668Z,82.71
2023-03-14T21:33:48.942Z,82.34
2023-03-14T21:37:11.265Z,81.56
2023-03-14T21:40:33.075Z,82.16
2023-03-14T21:43:54.260Z,81.96
2023-03-14T21:47:17.811Z,81.96
2023-03-14T21:50:38.927Z,81.40
2023-03-14T21:54:00.642Z,81.85
2023-03-14T21:57:29.644Z,82.27
2023-03-14T22:00:51.649Z,81.82
2023-03-14T22:04:14.230Z,81.76
2023-03-14T22:07:35.849Z,82.15
2023-03-14T22:10:58.027Z,81.55
2023-03-14T22:14:19.769Z,81.17
2023-03-14T22:17:42.311Z,81.14
2023-03-14T22:21:05.537Z,81.40
2023-03-14T22:24:27.373Z,81.01
2023-03-14T22:27:49.026Z,80.12
2023-03-14T22:31:10.504Z,79.57
2023-03-14T22:34:32.384Z,79.98
2023-03-14T22:37:55.012Z,79.61
2023-03-14T22:41:21.421Z,79.71
2023-03-14T22:44:42.906Z,80.14
2023-03-14T22:48:05.088Z,79.48
2023-03-14T22:51:26.375Z,78.87
2023-03-14T22:54:49.626Z,78.79
2023-03-14T22:58:11.912Z,78.60
2023-03-14T23:01:33.281Z,78.27
2023-03-14T23:04:56.048Z,78.14
2023-03-14T23:08:18.190Z,78.25
2023-03-14T23:11:41.695Z,78.43
2023-03-14T23:15:06.086Z,78.10
2023-03-14T23:18:28.220Z,78.71
2023-03-14T23:21:49.878Z,77.80
2023-03-14T23:25:11.941Z,78.02
2023-03-14T23:28:34.853Z,77.82
2023-03-14T23:31:56.362Z,77.60
2023-03-14T23:35:17.580Z,77.79
2023-03-14T23:38:39.248Z,77.88
2023-03-14T23:42:00.970Z,77.80
2023-03-14T23:45:24.120Z,77.76
2023-03-14T23:48:47.431Z,77.14
2023-03-14T23:52:09.049Z,77.84
2023-03-14T23:55:30.572Z,77.14
2023-03-14T23:58:53.928Z,77.25
